sensor_id;sensor_type;location;lat;lon;timestamp;temperature;humidity
66726;HTU21D;53638;51.062;5.804;2023-08-12T00:01:49;23.54;118.99
66726;HTU21D;53638;51.062;5.804;2023-08-12T00:04:16;23.57;118.99
66726;HTU21D;53638;51.062;5.804;2023-08-12T00:06:42;23.60;118.99
66726;HTU21D;53638;51.062;5.804;2023-08-12T00:09:09;23.56;118.99
66726;HTU21D;53638;51.062;5.804;2023-08-12T00:11:38;23.52;118.99
66726;HTU21D;53638;51.062;5.804;2023-08-12T00:14:04;23.54;118.99
66726;HTU21D;53638;51.062;5.804;2023-08-12T00:16:30;23.55;118.99
66726;HTU21D;53638;51.062;5.804;2023-08-12T00:18:56;23.56;118.99
66726;HTU21D;53638;51.062;5.804;2023-08-12T00:21:22;23.54;118.99
66726;HTU21D;53638;51.062;5.804;2023-08-12T00:23:48;23.47;118.99
66726;HTU21D;53638;51.062;5.804;2023-08-12T00:26:15;23.32;118.99
66726;HTU21D;53638;51.062;5.804;2023-08-12T00:28:41;23.25;118.99
66726;HTU21D;53638;51.062;5.804;2023-08-12T00:31:07;23.16;118.99
66726;HTU21D;53638;51.062;5.804;2023-08-12T00:33:33;23.12;118.99
66726;HTU21D;53638;51.062;5.804;2023-08-12T00:35:59;23.15;118.99
66726;HTU21D;53638;51.062;5.804;2023-08-12T00:38:27;23.17;118.99
66726;HTU21D;53638;51.062;5.804;2023-08-12T00:40:53;23.21;118.99
66726;HTU21D;53638;51.062;5.804;2023-08-12T00:43:19;23.28;118.99
66726;HTU21D;53638;51.062;5.804;2023-08-12T00:45:45;23.38;118.99
66726;HTU21D;53638;51.062;5.804;2023-08-12T00:48:11;23.41;118.99
66726;HTU21D;53638;51.062;5.804;2023-08-12T00:50:39;23.45;118.99
66726;HTU21D;53638;51.062;5.804;2023-08-12T00:53:06;23.53;118.99
66726;HTU21D;53638;51.062;5.804;2023-08-12T00:55:33;23.57;118.99
66726;HTU21D;53638;51.062;5.804;2023-08-12T00:57:59;23.62;118.99
66726;HTU21D;53638;51.062;5.804;2023-08-12T01:00:26;23.64;118.99
66726;HTU21D;53638;51.062;5.804;2023-08-12T01:02:52;23.67;118.99
66726;HTU21D;53638;51.062;5.804;2023-08-12T01:05:19;23.65;118.99
66726;HTU21D;53638;51.062;5.804;2023-08-12T01:07:45;23.54;118.99
66726;HTU21D;53638;51.062;5.804;2023-08-12T01:10:12;23.39;118.99
66726;HTU21D;53638;51.062;5.804;2023-08-12T01:15:16;23.21;118.99
66726;HTU21D;53638;51.062;5.804;2023-08-12T01:17:44;23.21;118.99
66726;HTU21D;53638;51.062;5.804;2023-08-12T01:20:11;23.29;118.99
66726;HTU21D;53638;51.062;5.804;2023-08-12T01:22:40;23.38;118.99
66726;HTU21D;53638;51.062;5.804;2023-08-12T01:25:07;23.45;118.99
66726;HTU21D;53638;51.062;5.804;2023-08-12T01:27:36;23.52;118.99
66726;HTU21D;53638;51.062;5.804;2023-08-12T01:30:05;23.55;118.99
66726;HTU21D;53638;51.062;5.804;2023-08-12T01:35:22;23.56;118.99
66726;HTU21D;53638;51.062;5.804;2023-08-12T01:37:52;23.58;118.99
66726;HTU21D;53638;51.062;5.804;2023-08-12T01:40:19;23.56;118.99
66726;HTU21D;53638;51.062;5.804;2023-08-12T01:42:46;23.53;118.99
66726;HTU21D;53638;51.062;5.804;2023-08-12T01:45:13;23.51;118.99
66726;HTU21D;53638;51.062;5.804;2023-08-12T01:47:43;23.50;118.99
66726;HTU21D;53638;51.062;5.804;2023-08-12T01:50:09;23.49;118.99
66726;HTU21D;53638;51.062;5.804;2023-08-12T01:52:35;23.50;118.99
66726;HTU21D;53638;51.062;5.804;2023-08-12T01:55:03;23.47;118.99
66726;HTU21D;53638;51.062;5.804;2023-08-12T01:57:30;23.43;118.99
66726;HTU21D;53638;51.062;5.804;2023-08-12T01:59:55;23.40;118.99
66726;HTU21D;53638;51.062;5.804;2023-08-12T02:02:21;23.34;118.99
66726;HTU21D;53638;51.062;5.804;2023-08-12T02:04:48;23.31;118.99
66726;HTU21D;53638;51.062;5.804;2023-08-12T02:07:14;23.34;118.99
66726;HTU21D;53638;51.062;5.804;2023-08-12T02:09:40;23.36;118.99
66726;HTU21D;53638;51.062;5.804;2023-08-12T02:12:06;23.37;118.99
66726;HTU21D;53638;51.062;5.804;2023-08-12T02:14:32;23.37;118.99
66726;HTU21D;53638;51.062;5.804;2023-08-12T02:16:58;23.41;118.99
66726;HTU21D;53638;51.062;5.804;2023-08-12T02:19:24;23.44;118.99
66726;HTU21D;53638;51.062;5.804;2023-08-12T02:21:50;23.43;118.99
66726;HTU21D;53638;51.062;5.804;2023-08-12T02:24:16;23.43;118.99
66726;HTU21D;53638;51.062;5.804;2023-08-12T02:26:42;23.42;118.99
66726;HTU21D;53638;51.062;5.804;2023-08-12T02:29:07;23.38;118.99
66726;HTU21D;53638;51.062;5.804;2023-08-12T02:31:33;23.35;118.99
66726;HTU21D;53638;51.062;5.804;2023-08-12T02:33:59;23.35;118.99
66726;HTU21D;53638;51.062;5.804;2023-08-12T02:36:25;23.35;118.99
66726;HTU21D;53638;51.062;5.804;2023-08-12T02:38:55;23.29;118.99
66726;HTU21D;53638;51.062;5.804;2023-08-12T02:41:21;23.24;118.99
66726;HTU21D;53638;51.062;5.804;2023-08-12T02:43:47;23.22;118.99
66726;HTU21D;53638;51.062;5.804;2023-08-12T02:46:13;23.23;118.99
66726;HTU21D;53638;51.062;5.804;2023-08-12T02:48:41;23.23;118.99
66726;HTU21D;53638;51.062;5.804;2023-08-12T02:51:07;23.23;118.99
66726;HTU21D;53638;51.062;5.804;2023-08-12T02:53:33;23.23;118.99
66726;HTU21D;53638;51.062;5.804;2023-08-12T02:55:59;23.23;118.99
66726;HTU21D;53638;51.062;5.804;2023-08-12T02:58:25;23.21;118.99
66726;HTU21D;53638;51.062;5.804;2023-08-12T03:00:51;23.12;118.99
66726;HTU21D;53638;51.062;5.804;2023-08-12T03:03:17;23.12;118.99
66726;HTU21D;53638;51.062;5.804;2023-08-12T03:05:46;23.13;118.99
66726;HTU21D;53638;51.062;5.804;2023-08-12T03:08:12;23.17;118.99
66726;HTU21D;53638;51.062;5.804;2023-08-12T03:10:38;23.14;118.99
66726;HTU21D;53638;51.062;5.804;2023-08-12T03:13:05;23.14;118.99
66726;HTU21D;53638;51.062;5.804;2023-08-12T03:15:31;23.11;118.99
66726;HTU21D;53638;51.062;5.804;2023-08-12T03:17:58;23.11;118.99
66726;HTU21D;53638;51.062;5.804;2023-08-12T03:20:24;23.09;118.99
66726;HTU21D;53638;51.062;5.804;2023-08-12T03:22:51;23.12;118.99
66726;HTU21D;53638;51.062;5.804;2023-08-12T03:25:17;23.13;118.99
66726;HTU21D;53638;51.062;5.804;2023-08-12T03:27:44;23.15;118.99
66726;HTU21D;53638;51.062;5.804;2023-08-12T03:30:11;23.16;118.99
66726;HTU21D;53638;51.062;5.804;2023-08-12T03:32:37;23.10;118.99
66726;HTU21D;53638;51.062;5.804;2023-08-12T03:35:04;23.10;118.99
66726;HTU21D;53638;51.062;5.804;2023-08-12T03:37:30;23.13;118.99
66726;HTU21D;53638;51.062;5.804;2023-08-12T03:39:56;23.17;118.99
66726;HTU21D;53638;51.062;5.804;2023-08-12T03:42:22;23.20;118.99
66726;HTU21D;53638;51.062;5.804;2023-08-12T03:44:49;23.18;118.99
66726;HTU21D;53638;51.062;5.804;2023-08-12T03:47:16;23.18;118.99
66726;HTU21D;53638;51.062;5.804;2023-08-12T03:49:47;23.18;118.99
66726;HTU21D;53638;51.062;5.804;2023-08-12T03:52:13;23.15;118.99
66726;HTU21D;53638;51.062;5.804;2023-08-12T03:54:39;23.14;118.99
66726;HTU21D;53638;51.062;5.804;2023-08-12T03:57:05;23.16;118.99
66726;HTU21D;53638;51.062;5.804;2023-08-12T03:59:31;23.14;118.99
66726;HTU21D;53638;51.062;5.804;2023-08-12T04:01:57;23.14;118.99
66726;HTU21D;53638;51.062;5.804;2023-08-12T04:04:23;23.14;118.99
66726;HTU21D;53638;51.062;5.804;2023-08-12T04:06:49;23.14;118.99
66726;HTU21D;53638;51.062;5.804;2023-08-12T04:09:18;23.17;118.99
66726;HTU21D;53638;51.062;5.804;2023-08-12T04:11:45;23.21;118.99
66726;HTU21D;53638;51.062;5.804;2023-08-12T04:14:12;23.22;118.99
66726;HTU21D;53638;51.062;5.804;2023-08-12T04:16:39;23.18;118.99
66726;HTU21D;53638;51.062;5.804;2023-08-12T04:19:05;23.16;118.99
66726;HTU21D;53638;51.062;5.804;2023-08-12T04:21:32;23.16;118.99
66726;HTU21D;53638;51.062;5.804;2023-08-12T04:23:58;23.11;118.99
66726;HTU21D;53638;51.062;5.804;2023-08-12T04:26:24;23.08;118.99
66726;HTU21D;53638;51.062;5.804;2023-08-12T04:28:50;23.08;118.99
66726;HTU21D;53638;51.062;5.804;2023-08-12T04:31:17;23.07;118.99
66726;HTU21D;53638;51.062;5.804;2023-08-12T04:33:43;23.06;118.99
66726;HTU21D;53638;51.062;5.804;2023-08-12T04:36:09;23.01;118.99
66726;HTU21D;53638;51.062;5.804;2023-08-12T04:38:35;22.99;118.99
66726;HTU21D;53638;51.062;5.804;2023-08-12T04:41:05;22.99;118.99
66726;HTU21D;53638;51.062;5.804;2023-08-12T04:43:31;22.99;118.99
66726;HTU21D;53638;51.062;5.804;2023-08-12T04:45:57;23.01;118.99
66726;HTU21D;53638;51.062;5.804;2023-08-12T04:48:23;23.03;118.99
66726;HTU21D;53638;51.062;5.804;2023-08-12T04:50:49;23.03;118.99
66726;HTU21D;53638;51.062;5.804;2023-08-12T04:53:17;23.01;118.99
66726;HTU21D;53638;51.062;5.804;2023-08-12T04:55:42;22.98;118.99
66726;HTU21D;53638;51.062;5.804;2023-08-12T04:58:09;22.92;118.99
66726;HTU21D;53638;51.062;5.804;2023-08-12T05:00:35;22.80;118.99
66726;HTU21D;53638;51.062;5.804;2023-08-12T05:03:01;22.71;118.99
66726;HTU21D;53638;51.062;5.804;2023-08-12T05:05:28;22.70;118.99
66726;HTU21D;53638;51.062;5.804;2023-08-12T05:07:54;22.63;118.99
66726;HTU21D;53638;51.062;5.804;2023-08-12T05:10:20;22.53;118.99
66726;HTU21D;53638;51.062;5.804;2023-08-12T05:12:46;22.49;118.99
66726;HTU21D;53638;51.062;5.804;2023-08-12T05:15:14;22.36;118.99
66726;HTU21D;53638;51.062;5.804;2023-08-12T05:17:42;22.20;118.99
66726;HTU21D;53638;51.062;5.804;2023-08-12T05:20:09;22.06;118.99
66726;HTU21D;53638;51.062;5.804;2023-08-12T05:22:34;21.95;118.99
66726;HTU21D;53638;51.062;5.804;2023-08-12T05:25:00;21.83;118.99
66726;HTU21D;53638;51.062;5.804;2023-08-12T05:27:26;21.70;118.99
66726;HTU21D;53638;51.062;5.804;2023-08-12T05:29:52;21.64;118.99
66726;HTU21D;53638;51.062;5.804;2023-08-12T05:32:18;21.67;118.99
66726;HTU21D;53638;51.062;5.804;2023-08-12T05:34:44;21.70;118.99
66726;HTU21D;53638;51.062;5.804;2023-08-12T05:37:10;21.76;118.99
66726;HTU21D;53638;51.062;5.804;2023-08-12T05:39:36;21.80;118.99
66726;HTU21D;53638;51.062;5.804;2023-08-12T05:42:02;21.79;118.99
66726;HTU21D;53638;51.062;5.804;2023-08-12T05:44:28;21.72;118.99
66726;HTU21D;53638;51.062;5.804;2023-08-12T05:46:53;21.72;118.99
66726;HTU21D;53638;51.062;5.804;2023-08-12T05:49:19;21.72;118.99
66726;HTU21D;53638;51.062;5.804;2023-08-12T05:51:45;21.64;118.99
66726;HTU21D;53638;51.062;5.804;2023-08-12T05:54:11;21.60;118.99
66726;HTU21D;53638;51.062;5.804;2023-08-12T05:56:37;21.53;118.99
66726;HTU21D;53638;51.062;5.804;2023-08-12T05:59:03;21.51;118.99
66726;HTU21D;53638;51.062;5.804;2023-08-12T06:01:29;21.55;118.99
66726;HTU21D;53638;51.062;5.804;2023-08-12T06:03:55;21.52;118.99
66726;HTU21D;53638;51.062;5.804;2023-08-12T06:06:20;21.52;118.99
66726;HTU21D;53638;51.062;5.804;2023-08-12T06:08:47;21.53;118.99
66726;HTU21D;53638;51.062;5.804;2023-08-12T06:11:13;21.58;118.99
66726;HTU21D;53638;51.062;5.804;2023-08-12T06:13:39;21.63;118.99
66726;HTU21D;53638;51.062;5.804;2023-08-12T06:16:05;21.52;118.99
66726;HTU21D;53638;51.062;5.804;2023-08-12T06:18:31;21.58;118.99
66726;HTU21D;53638;51.062;5.804;2023-08-12T06:20:56;21.62;118.99
66726;HTU21D;53638;51.062;5.804;2023-08-12T06:23:22;21.68;118.99
66726;HTU21D;53638;51.062;5.804;2023-08-12T06:25:48;21.64;118.99
66726;HTU21D;53638;51.062;5.804;2023-08-12T06:28:14;21.62;118.99
66726;HTU21D;53638;51.062;5.804;2023-08-12T06:30:40;21.65;118.99
66726;HTU21D;53638;51.062;5.804;2023-08-12T06:33:06;21.79;118.99
66726;HTU21D;53638;51.062;5.804;2023-08-12T06:35:31;21.84;118.99
66726;HTU21D;53638;51.062;5.804;2023-08-12T06:37:57;21.80;118.99
66726;HTU21D;53638;51.062;5.804;2023-08-12T06:40:23;21.93;118.99
66726;HTU21D;53638;51.062;5.804;2023-08-12T06:42:49;22.05;118.99
66726;HTU21D;53638;51.062;5.804;2023-08-12T06:45:15;22.10;118.99
66726;HTU21D;53638;51.062;5.804;2023-08-12T06:47:41;22.17;118.99
66726;HTU21D;53638;51.062;5.804;2023-08-12T06:50:07;22.21;118.99
66726;HTU21D;53638;51.062;5.804;2023-08-12T06:52:33;22.26;118.99
66726;HTU21D;53638;51.062;5.804;2023-08-12T06:54:59;22.37;118.99
66726;HTU21D;53638;51.062;5.804;2023-08-12T06:57:25;22.42;118.99
66726;HTU21D;53638;51.062;5.804;2023-08-12T06:59:51;22.55;118.99
66726;HTU21D;53638;51.062;5.804;2023-08-12T07:02:17;22.66;118.99
66726;HTU21D;53638;51.062;5.804;2023-08-12T07:04:43;22.66;118.99
66726;HTU21D;53638;51.062;5.804;2023-08-12T07:07:09;22.69;118.99
66726;HTU21D;53638;51.062;5.804;2023-08-12T07:09:35;22.73;118.99
66726;HTU21D;53638;51.062;5.804;2023-08-12T07:12:01;22.68;118.99
66726;HTU21D;53638;51.062;5.804;2023-08-12T07:14:27;22.73;118.99
66726;HTU21D;53638;51.062;5.804;2023-08-12T07:16:54;22.76;118.99
66726;HTU21D;53638;51.062;5.804;2023-08-12T07:19:19;22.78;118.99
66726;HTU21D;53638;51.062;5.804;2023-08-12T07:21:45;22.79;118.99
66726;HTU21D;53638;51.062;5.804;2023-08-12T07:24:11;22.75;118.99
66726;HTU21D;53638;51.062;5.804;2023-08-12T07:26:37;22.68;118.99
66726;HTU21D;53638;51.062;5.804;2023-08-12T07:29:03;22.70;118.99
66726;HTU21D;53638;51.062;5.804;2023-08-12T07:31:29;22.72;118.99
66726;HTU21D;53638;51.062;5.804;2023-08-12T07:33:55;22.75;118.99
66726;HTU21D;53638;51.062;5.804;2023-08-12T07:36:21;22.80;118.99
66726;HTU21D;53638;51.062;5.804;2023-08-12T07:38:48;22.88;118.99
66726;HTU21D;53638;51.062;5.804;2023-08-12T07:41:13;22.97;118.99
66726;HTU21D;53638;51.062;5.804;2023-08-12T07:43:39;23.05;118.99
66726;HTU21D;53638;51.062;5.804;2023-08-12T07:46:05;23.11;118.99
66726;HTU21D;53638;51.062;5.804;2023-08-12T07:48:31;23.20;118.99
66726;HTU21D;53638;51.062;5.804;2023-08-12T07:50:58;23.24;118.99
66726;HTU21D;53638;51.062;5.804;2023-08-12T07:53:25;23.31;118.99
66726;HTU21D;53638;51.062;5.804;2023-08-12T07:55:52;23.40;118.99
66726;HTU21D;53638;51.062;5.804;2023-08-12T07:58:18;23.49;118.99
66726;HTU21D;53638;51.062;5.804;2023-08-12T08:00:44;23.52;118.99
66726;HTU21D;53638;51.062;5.804;2023-08-12T08:03:10;23.57;118.99
66726;HTU21D;53638;51.062;5.804;2023-08-12T08:05:35;23.61;118.99
66726;HTU21D;53638;51.062;5.804;2023-08-12T08:08:05;23.60;118.99
66726;HTU21D;53638;51.062;5.804;2023-08-12T08:10:31;23.56;118.99
66726;HTU21D;53638;51.062;5.804;2023-08-12T08:12:57;23.49;118.99
66726;HTU21D;53638;51.062;5.804;2023-08-12T08:15:22;23.45;118.99
66726;HTU21D;53638;51.062;5.804;2023-08-12T08:17:48;23.44;118.99
66726;HTU21D;53638;51.062;5.804;2023-08-12T08:20:14;23.53;118.99
66726;HTU21D;53638;51.062;5.804;2023-08-12T08:22:40;23.60;118.99
66726;HTU21D;53638;51.062;5.804;2023-08-12T08:25:06;23.67;118.99
66726;HTU21D;53638;51.062;5.804;2023-08-12T08:27:32;23.72;118.99
66726;HTU21D;53638;51.062;5.804;2023-08-12T08:29:58;23.77;118.99
66726;HTU21D;53638;51.062;5.804;2023-08-12T08:32:24;23.79;118.99
66726;HTU21D;53638;51.062;5.804;2023-08-12T08:34:51;23.74;118.99
66726;HTU21D;53638;51.062;5.804;2023-08-12T08:37:17;23.75;118.99
66726;HTU21D;53638;51.062;5.804;2023-08-12T08:39:43;23.79;118.99
66726;HTU21D;53638;51.062;5.804;2023-08-12T08:42:10;23.83;118.99
66726;HTU21D;53638;51.062;5.804;2023-08-12T08:44:40;23.82;118.99
66726;HTU21D;53638;51.062;5.804;2023-08-12T08:47:08;23.80;118.99
66726;HTU21D;53638;51.062;5.804;2023-08-12T08:49:34;23.76;118.99
66726;HTU21D;53638;51.062;5.804;2023-08-12T08:52:02;23.75;118.99
66726;HTU21D;53638;51.062;5.804;2023-08-12T08:54:28;23.76;118.99
66726;HTU21D;53638;51.062;5.804;2023-08-12T08:56:54;23.80;118.99
66726;HTU21D;53638;51.062;5.804;2023-08-12T08:59:20;23.76;118.99
66726;HTU21D;53638;51.062;5.804;2023-08-12T09:01:49;23.80;118.99
66726;HTU21D;53638;51.062;5.804;2023-08-12T09:04:17;23.84;118.99
66726;HTU21D;53638;51.062;5.804;2023-08-12T09:06:45;23.92;118.99
66726;HTU21D;53638;51.062;5.804;2023-08-12T09:09:14;24.15;118.99
66726;HTU21D;53638;51.062;5.804;2023-08-12T09:11:41;24.32;118.99
66726;HTU21D;53638;51.062;5.804;2023-08-12T09:14:07;24.50;118.99
66726;HTU21D;53638;51.062;5.804;2023-08-12T09:16:34;24.71;118.99
66726;HTU21D;53638;51.062;5.804;2023-08-12T09:19:00;24.86;118.99
66726;HTU21D;53638;51.062;5.804;2023-08-12T09:21:26;25.01;118.99
66726;HTU21D;53638;51.062;5.804;2023-08-12T09:23:52;25.13;118.99
66726;HTU21D;53638;51.062;5.804;2023-08-12T09:26:19;25.34;118.99
66726;HTU21D;53638;51.062;5.804;2023-08-12T09:28:47;25.49;118.99
66726;HTU21D;53638;51.062;5.804;2023-08-12T09:31:25;25.61;118.99
66726;HTU21D;53638;51.062;5.804;2023-08-12T09:33:52;25.58;118.99
66726;HTU21D;53638;51.062;5.804;2023-08-12T09:36:25;25.58;118.99
66726;HTU21D;53638;51.062;5.804;2023-08-12T09:38:57;25.48;118.99
66726;HTU21D;53638;51.062;5.804;2023-08-12T09:41:27;25.33;118.99
66726;HTU21D;53638;51.062;5.804;2023-08-12T09:43:55;25.15;118.99
66726;HTU21D;53638;51.062;5.804;2023-08-12T09:46:23;25.10;118.99
66726;HTU21D;53638;51.062;5.804;2023-08-12T09:48:51;25.22;118.99
66726;HTU21D;53638;51.062;5.804;2023-08-12T09:51:19;25.39;118.99
66726;HTU21D;53638;51.062;5.804;2023-08-12T09:53:47;25.49;118.99
66726;HTU21D;53638;51.062;5.804;2023-08-12T09:56:18;25.47;118.99
66726;HTU21D;53638;51.062;5.804;2023-08-12T09:58:48;25.37;118.99
66726;HTU21D;53638;51.062;5.804;2023-08-12T10:01:18;25.37;118.99
66726;HTU21D;53638;51.062;5.804;2023-08-12T10:03:49;25.40;118.99
66726;HTU21D;53638;51.062;5.804;2023-08-12T10:06:17;25.43;118.99
66726;HTU21D;53638;51.062;5.804;2023-08-12T10:08:45;25.61;118.99
66726;HTU21D;53638;51.062;5.804;2023-08-12T10:11:12;25.74;118.99
66726;HTU21D;53638;51.062;5.804;2023-08-12T10:13:40;25.74;118.99
66726;HTU21D;53638;51.062;5.804;2023-08-12T10:16:08;25.82;118.99
66726;HTU21D;53638;51.062;5.804;2023-08-12T10:18:36;25.79;118.99
66726;HTU21D;53638;51.062;5.804;2023-08-12T10:21:04;25.71;118.99
66726;HTU21D;53638;51.062;5.804;2023-08-12T10:23:32;25.77;118.99
66726;HTU21D;53638;51.062;5.804;2023-08-12T10:26:00;25.73;118.99
66726;HTU21D;53638;51.062;5.804;2023-08-12T10:28:29;25.80;118.99
66726;HTU21D;53638;51.062;5.804;2023-08-12T10:30:57;25.91;118.99
66726;HTU21D;53638;51.062;5.804;2023-08-12T10:33:23;26.06;118.99
66726;HTU21D;53638;51.062;5.804;2023-08-12T10:35:49;25.91;118.99
66726;HTU21D;53638;51.062;5.804;2023-08-12T10:38:18;25.29;118.99
66726;HTU21D;53638;51.062;5.804;2023-08-12T10:40:44;24.48;118.99
66726;HTU21D;53638;51.062;5.804;2023-08-12T10:43:12;23.72;118.99
66726;HTU21D;53638;51.062;5.804;2023-08-12T10:45:47;23.01;118.99
66726;HTU21D;53638;51.062;5.804;2023-08-12T10:48:24;22.73;118.99
66726;HTU21D;53638;51.062;5.804;2023-08-12T10:50:53;22.80;118.99
66726;HTU21D;53638;51.062;5.804;2023-08-12T10:53:22;23.23;118.99
66726;HTU21D;53638;51.062;5.804;2023-08-12T10:55:54;23.80;118.99
66726;HTU21D;53638;51.062;5.804;2023-08-12T10:58:29;23.86;118.99
66726;HTU21D;53638;51.062;5.804;2023-08-12T11:00:57;23.79;118.99
66726;HTU21D;53638;51.062;5.804;2023-08-12T11:03:23;23.56;118.99
66726;HTU21D;53638;51.062;5.804;2023-08-12T11:05:49;23.21;118.99
66726;HTU21D;53638;51.062;5.804;2023-08-12T11:08:16;22.84;118.99
66726;HTU21D;53638;51.062;5.804;2023-08-12T11:10:42;22.63;118.99
66726;HTU21D;53638;51.062;5.804;2023-08-12T11:13:09;22.49;118.99
66726;HTU21D;53638;51.062;5.804;2023-08-12T11:15:41;22.58;118.99
66726;HTU21D;53638;51.062;5.804;2023-08-12T11:18:12;22.66;118.99
66726;HTU21D;53638;51.062;5.804;2023-08-12T11:20:38;22.64;118.99
66726;HTU21D;53638;51.062;5.804;2023-08-12T11:23:06;22.60;118.99
66726;HTU21D;53638;51.062;5.804;2023-08-12T11:25:35;22.61;118.99
66726;HTU21D;53638;51.062;5.804;2023-08-12T11:28:01;22.51;118.99
66726;HTU21D;53638;51.062;5.804;2023-08-12T11:30:27;22.51;118.99
66726;HTU21D;53638;51.062;5.804;2023-08-12T11:32:55;22.56;118.99
66726;HTU21D;53638;51.062;5.804;2023-08-12T11:35:23;22.77;118.99
66726;HTU21D;53638;51.062;5.804;2023-08-12T11:37:54;22.83;118.99
66726;HTU21D;53638;51.062;5.804;2023-08-12T11:40:23;22.78;118.99
66726;HTU21D;53638;51.062;5.804;2023-08-12T11:42:51;22.49;118.99
66726;HTU21D;53638;51.062;5.804;2023-08-12T11:45:20;22.34;118.99
66726;HTU21D;53638;51.062;5.804;2023-08-12T11:47:47;22.16;118.99
66726;HTU21D;53638;51.062;5.804;2023-08-12T11:50:20;22.12;118.99
66726;HTU21D;53638;51.062;5.804;2023-08-12T11:52:47;22.01;118.99
66726;HTU21D;53638;51.062;5.804;2023-08-12T11:55:14;21.98;118.99
66726;HTU21D;53638;51.062;5.804;2023-08-12T11:57:40;22.11;118.99
66726;HTU21D;53638;51.062;5.804;2023-08-12T12:00:09;22.25;118.99
66726;HTU21D;53638;51.062;5.804;2023-08-12T12:02:53;22.37;118.99
66726;HTU21D;53638;51.062;5.804;2023-08-12T12:05:23;22.38;118.99
66726;HTU21D;53638;51.062;5.804;2023-08-12T12:07:49;22.52;118.99
66726;HTU21D;53638;51.062;5.804;2023-08-12T12:10:25;22.60;118.99
66726;HTU21D;53638;51.062;5.804;2023-08-12T12:12:51;22.96;118.99
66726;HTU21D;53638;51.062;5.804;2023-08-12T12:15:17;23.49;118.99
66726;HTU21D;53638;51.062;5.804;2023-08-12T12:17:46;23.86;118.99
66726;HTU21D;53638;51.062;5.804;2023-08-12T12:20:12;24.25;118.99
66726;HTU21D;53638;51.062;5.804;2023-08-12T12:22:42;24.48;118.99
66726;HTU21D;53638;51.062;5.804;2023-08-12T12:25:11;24.78;118.99
66726;HTU21D;53638;51.062;5.804;2023-08-12T12:27:39;25.69;118.99
66726;HTU21D;53638;51.062;5.804;2023-08-12T12:30:08;27.41;118.99
66726;HTU21D;53638;51.062;5.804;2023-08-12T12:32:35;29.44;106.40
66726;HTU21D;53638;51.062;5.804;2023-08-12T12:35:01;30.80;96.26
66726;HTU21D;53638;51.062;5.804;2023-08-12T12:37:30;32.03;89.80
66726;HTU21D;53638;51.062;5.804;2023-08-12T12:39:56;32.03;84.71
66726;HTU21D;53638;51.062;5.804;2023-08-12T12:42:21;31.43;84.26
66726;HTU21D;53638;51.062;5.804;2023-08-12T12:44:47;30.99;83.45
66726;HTU21D;53638;51.062;5.804;2023-08-12T12:47:13;30.05;85.03
66726;HTU21D;53638;51.062;5.804;2023-08-12T12:49:40;28.53;89.66
66726;HTU21D;53638;51.062;5.804;2023-08-12T12:52:07;29.26;87.93
66726;HTU21D;53638;51.062;5.804;2023-08-12T12:54:33;30.59;84.70
66726;HTU21D;53638;51.062;5.804;2023-08-12T12:56:59;32.13;78.49
66726;HTU21D;53638;51.062;5.804;2023-08-12T12:59:25;33.26;74.62
66726;HTU21D;53638;51.062;5.804;2023-08-12T13:01:51;34.07;70.32
66726;HTU21D;53638;51.062;5.804;2023-08-12T13:04:17;34.66;67.36
66726;HTU21D;53638;51.062;5.804;2023-08-12T13:06:43;34.81;64.67
66726;HTU21D;53638;51.062;5.804;2023-08-12T13:09:09;34.88;63.91
66726;HTU21D;53638;51.062;5.804;2023-08-12T13:11:35;35.08;63.37
66726;HTU21D;53638;51.062;5.804;2023-08-12T13:14:02;35.15;61.90
66726;HTU21D;53638;51.062;5.804;2023-08-12T13:16:28;35.21;60.18
66726;HTU21D;53638;51.062;5.804;2023-08-12T13:18:54;35.42;59.72
66726;HTU21D;53638;51.062;5.804;2023-08-12T13:21:20;35.86;59.01
66726;HTU21D;53638;51.062;5.804;2023-08-12T13:23:46;36.03;57.42
66726;HTU21D;53638;51.062;5.804;2023-08-12T13:26:13;35.97;57.48
66726;HTU21D;53638;51.062;5.804;2023-08-12T13:28:39;36.17;55.36
66726;HTU21D;53638;51.062;5.804;2023-08-12T13:31:04;36.07;54.75
66726;HTU21D;53638;51.062;5.804;2023-08-12T13:33:31;36.18;55.70
66726;HTU21D;53638;51.062;5.804;2023-08-12T13:35:58;36.41;55.04
66726;HTU21D;53638;51.062;5.804;2023-08-12T13:38:23;36.61;54.30
66726;HTU21D;53638;51.062;5.804;2023-08-12T13:40:49;36.70;54.77
66726;HTU21D;53638;51.062;5.804;2023-08-12T13:43:15;37.17;54.52
66726;HTU21D;53638;51.062;5.804;2023-08-12T13:45:41;37.50;52.97
66726;HTU21D;53638;51.062;5.804;2023-08-12T13:48:07;37.62;52.10
66726;HTU21D;53638;51.062;5.804;2023-08-12T13:50:33;37.72;52.17
66726;HTU21D;53638;51.062;5.804;2023-08-12T13:52:59;37.64;51.62
66726;HTU21D;53638;51.062;5.804;2023-08-12T13:55:26;37.37;52.26
66726;HTU21D;53638;51.062;5.804;2023-08-12T13:57:52;37.23;51.79
66726;HTU21D;53638;51.062;5.804;2023-08-12T14:00:19;36.56;53.64
66726;HTU21D;53638;51.062;5.804;2023-08-12T14:02:45;36.57;53.58
66726;HTU21D;53638;51.062;5.804;2023-08-12T14:05:13;36.62;53.49
66726;HTU21D;53638;51.062;5.804;2023-08-12T14:07:39;37.13;52.55
66726;HTU21D;53638;51.062;5.804;2023-08-12T14:10:05;37.60;51.56
66726;HTU21D;53638;51.062;5.804;2023-08-12T14:12:31;38.21;50.68
66726;HTU21D;53638;51.062;5.804;2023-08-12T14:14:57;38.18;50.78
66726;HTU21D;53638;51.062;5.804;2023-08-12T14:17:23;37.62;51.21
66726;HTU21D;53638;51.062;5.804;2023-08-12T14:19:50;37.58;51.86
66726;HTU21D;53638;51.062;5.804;2023-08-12T14:22:17;36.91;52.51
66726;HTU21D;53638;51.062;5.804;2023-08-12T14:24:43;37.47;53.04
66726;HTU21D;53638;51.062;5.804;2023-08-12T14:27:10;38.58;50.49
66726;HTU21D;53638;51.062;5.804;2023-08-12T14:29:36;38.48;49.66
66726;HTU21D;53638;51.062;5.804;2023-08-12T14:32:02;37.73;49.84
66726;HTU21D;53638;51.062;5.804;2023-08-12T14:34:28;35.31;52.75
66726;HTU21D;53638;51.062;5.804;2023-08-12T14:36:54;34.20;55.82
66726;HTU21D;53638;51.062;5.804;2023-08-12T14:39:20;32.84;58.28
66726;HTU21D;53638;51.062;5.804;2023-08-12T14:41:47;31.35;62.13
66726;HTU21D;53638;51.062;5.804;2023-08-12T14:44:14;31.14;64.34
66726;HTU21D;53638;51.062;5.804;2023-08-12T14:46:41;30.83;65.05
66726;HTU21D;53638;51.062;5.804;2023-08-12T14:49:07;32.57;61.22
66726;HTU21D;53638;51.062;5.804;2023-08-12T14:51:33;32.81;60.04
66726;HTU21D;53638;51.062;5.804;2023-08-12T14:53:59;33.71;58.88
66726;HTU21D;53638;51.062;5.804;2023-08-12T14:56:24;34.94;56.61
66726;HTU21D;53638;51.062;5.804;2023-08-12T14:58:50;35.97;54.23
66726;HTU21D;53638;51.062;5.804;2023-08-12T15:01:16;36.85;53.53
66726;HTU21D;53638;51.062;5.804;2023-08-12T15:03:42;38.05;51.70
66726;HTU21D;53638;51.062;5.804;2023-08-12T15:06:08;38.70;48.28
66726;HTU21D;53638;51.062;5.804;2023-08-12T15:08:34;36.98;50.41